Time;durP1;ratioP1;P1;durP2;ratioP2;P2;SDS_P1;SDS_P2;PMS_P1;PMS_P2;Temp;Humidity;BMP_temperature;BMP_pressure;BME280_temperature;BME280_humidity;BME280_pressure;Samples;Min_cycle;Max_cycle;Signal;HPM_P1;HPM_P2
2023/04/30 00:00:37;;;;;;;17.17;6.47;;;;;;;7.80;46.78;100220.88;125311;1086;104349;-80
2023/04/30 00:03:25;;;;;;;15.67;6.03;;;;;;;7.76;46.48;100225.08;125345;1085;104273;-79
2023/04/30 00:05:54;;;;;;;18.67;6.80;;;;;;;7.74;47.04;100218.88;125273;1086;104491;-79
2023/04/30 00:08:22;;;;;;;19.70;7.40;;;;;;;7.71;46.59;100216.13;125258;1086;104241;-80
2023/04/30 00:10:51;;;;;;;19.00;6.60;;;;;;;7.66;47.11;100218.55;125250;1086;104235;-79
2023/04/30 00:13:19;;;;;;;19.90;6.93;;;;;;;7.64;48.04;100208.89;125239;1086;104322;-79
2023/04/30 00:15:48;;;;;;;18.00;6.63;;;;;;;7.56;48.24;100209.44;125311;1086;104219;-79
2023/04/30 00:18:16;;;;;;;19.70;6.90;;;;;;;7.52;48.22;100210.13;125254;1086;104295;-79
2023/04/30 00:20:45;;;;;;;16.27;6.67;;;;;;;7.49;48.84;100203.88;125326;1086;104233;-80
2023/04/30 00:23:13;;;;;;;22.80;7.77;;;;;;;7.44;49.40;100205.41;125256;1086;104213;-80
2023/04/30 00:25:42;;;;;;;17.33;6.67;;;;;;;7.37;49.27;100204.27;125343;1086;104337;-80
2023/04/30 00:28:10;;;;;;;18.37;7.67;;;;;;;7.32;49.43;100200.53;125398;1086;104291;-80
2023/04/30 00:30:39;;;;;;;19.47;7.20;;;;;;;7.29;49.33;100198.70;125267;1086;104343;-80
2023/04/30 00:33:07;;;;;;;18.27;7.33;;;;;;;7.24;49.37;100187.15;125320;1086;104373;-80
2023/04/30 00:35:36;;;;;;;17.40;6.50;;;;;;;7.25;49.07;100195.89;125354;1086;104293;-80
2023/04/30 00:38:05;;;;;;;18.00;6.53;;;;;;;7.28;49.48;100191.69;125362;1086;104228;-79
2023/04/30 00:40:35;;;;;;;19.90;7.60;;;;;;;7.28;49.69;100183.86;125261;1086;104350;-79
2023/04/30 00:43:03;;;;;;;17.37;6.17;;;;;;;7.29;49.84;100190.88;125277;1086;104286;-81
2023/04/30 00:45:32;;;;;;;18.75;6.65;;;;;;;7.29;49.97;100184.74;125343;1086;104232;-79
2023/04/30 00:48:00;;;;;;;18.50;6.57;;;;;;;7.24;50.38;100181.05;125257;1086;110881;-79
2023/04/30 00:50:30;;;;;;;15.13;6.17;;;;;;;7.20;50.27;100175.69;125301;1086;104616;-79
2023/04/30 00:53:00;;;;;;;15.50;6.50;;;;;;;7.18;51.26;100179.05;125310;1085;104305;-79
2023/04/30 00:55:28;;;;;;;16.20;6.03;;;;;;;7.14;50.84;100175.42;125414;1086;104388;-80
2023/04/30 00:57:57;;;;;;;18.50;6.55;;;;;;;7.13;51.67;100173.63;125301;1086;104417;-79
2023/04/30 01:00:27;;;;;;;15.77;6.03;;;;;;;7.12;50.96;100169.25;125273;1086;104296;-80
2023/04/30 01:02:57;;;;;;;17.50;6.37;;;;;;;7.14;50.76;100170.20;125511;1086;104279;-79
2023/04/30 01:05:26;;;;;;;17.27;6.33;;;;;;;7.14;50.92;100170.20;125291;1086;104329;-80
2023/04/30 01:07:55;;;;;;;15.97;5.90;;;;;;;7.14;50.48;100170.20;125247;1086;104380;-79
2023/04/30 01:10:29;;;;;;;17.63;5.97;;;;;;;7.14;50.72;100170.20;125360;1086;104308;-79
2023/04/30 01:13:06;;;;;;;16.00;5.83;;;;;;;7.13;50.99;100165.80;125441;1086;104318;-78
2023/04/30 01:15:41;;;;;;;15.30;5.70;;;;;;;7.14;50.71;100167.59;125249;1086;104312;-80
2023/04/30 01:18:17;;;;;;;19.00;6.90;;;;;;;7.18;50.76;100166.91;125321;1086;104487;-78
2023/04/30 01:20:49;;;;;;;16.33;5.90;;;;;;;7.18;51.20;100159.09;125417;1086;104286;-79
2023/04/30 01:23:39;;;;;;;17.10;6.47;;;;;;;7.17;50.33;100164.23;125271;1086;104238;-79
2023/04/30 01:26:13;;;;;;;17.40;6.20;;;;;;;7.13;50.82;100151.87;125316;1086;104343;-80
2023/04/30 01:28:45;;;;;;;18.05;6.30;;;;;;;7.10;51.24;100157.84;125161;1086;104242;-78
2023/04/30 01:31:19;;;;;;;17.17;6.07;;;;;;;7.05;51.79;100154.14;125239;1086;104356;-79
2023/04/30 01:33:46;;;;;;;;;;;;;;;7.00;52.11;100151.33;125194;1086;104366;-79
2023/04/30 01:36:35;;;;;;;17.20;6.33;;;;;;;6.98;51.41;100152.98;125269;1086;104369;-78
2023/04/30 01:39:48;;;;;;;19.20;6.47;;;;;;;6.96;51.45;100146.78;125253;1086;111719;-79
2023/04/30 01:42:22;;;;;;;19.47;6.70;;;;;;;6.93;51.36;100149.25;125245;1086;104373;-79
2023/04/30 01:45:04;;;;;;;17.53;6.63;;;;;;;6.90;52.27;100153.45;125296;1086;104326;-79
2023/04/30 01:47:39;;;;;;;17.93;6.50;;;;;;;6.90;51.63;100150.84;125322;1086;104433;-78
2023/04/30 01:50:20;;;;;;;18.00;7.05;;;;;;;6.89;51.48;100151.66;125314;1086;104286;-78
2023/04/30 01:52:52;;;;;;;17.63;6.63;;;;;;;6.90;51.69;100148.23;125233;1086;104389;-78
2023/04/30 01:55:26;;;;;;;18.90;6.70;;;;;;;6.86;52.42;100152.44;125254;1086;104238;-79
2023/04/30 01:57:58;;;;;;;20.60;6.93;;;;;;;6.78;52.81;100144.27;125299;1086;104293;-79
2023/04/30 02:00:29;;;;;;;17.70;6.10;;;;;;;6.72;53.28;100158.75;125330;1086;104286;-78
2023/04/30 02:02:57;;;;;;;22.07;7.00;;;;;;;6.66;53.02;100144.59;125359;1086;104270;-78
2023/04/30 02:05:26;;;;;;;18.13;6.40;;;;;;;6.60;53.14;100144.30;125390;1086;104699;-79
2023/04/30 02:07:55;;;;;;;17.90;6.40;;;;;;;6.56;53.79;100145.01;125177;1086;104293;-79
2023/04/30 02:10:25;;;;;;;17.60;6.97;;;;;;;6.54;54.27;100144.02;125322;1086;104643;-80
2023/04/30 02:12:54;;;;;;;16.13;5.90;;;;;;;6.51;53.59;100146.48;125252;1086;104366;-79
2023/04/30 02:15:23;;;;;;;17.77;6.20;;;;;;;6.50;53.75;100146.41;125177;1086;104395;-79
2023/04/30 02:17:51;;;;;;;16.00;6.50;;;;;;;6.46;54.09;100148.87;125279;1086;104231;-79
2023/04/30 02:20:20;;;;;;;17.85;6.35;;;;;;;6.44;54.05;100141.83;125336;1086;104239;-79
2023/04/30 02:22:49;;;;;;;16.37;5.97;;;;;;;6.45;54.70;100140.98;125346;1086;104430;-80
2023/04/30 02:25:17;;;;;;;18.87;6.33;;;;;;;6.43;54.93;100146.13;125294;1086;104340;-78
2023/04/30 02:27:46;;;;;;;20.23;6.17;;;;;;;6.41;54.52;100142.57;125207;1086;104213;-78
2023/04/30 02:30:14;;;;;;;18.13;6.40;;;;;;;6.39;54.24;100141.62;125038;1086;104280;-79
2023/04/30 02:32:43;;;;;;;14.43;5.43;;;;;;;6.39;54.70;100139.02;125152;1086;104274;-79
2023/04/30 02:35:11;;;;;;;16.73;5.87;;;;;;;6.40;55.20;100140.77;125204;1086;104366;-79
2023/04/30 02:37:40;;;;;;;16.50;5.77;;;;;;;6.39;55.13;100141.62;125182;1086;104453;-79
2023/04/30 02:40:11;;;;;;;15.73;5.73;;;;;;;6.38;55.02;100139.82;125176;1086;104362;-80
2023/04/30 02:42:40;;;;;;;15.17;5.77;;;;;;;6.39;55.91;100131.19;125228;1086;104385;-79
2023/04/30 02:45:09;;;;;;;15.20;5.47;;;;;;;6.40;54.96;100129.47;125288;1086;104302;-79
2023/04/30 02:47:38;;;;;;;16.90;5.30;;;;;;;6.38;55.87;100142.42;125523;1086;104338;-80
2023/04/30 02:50:09;;;;;;;14.90;5.60;;;;;;;6.38;55.13;100134.61;125196;1086;104321;-80
2023/04/30 02:52:37;;;;;;;16.43;5.57;;;;;;;6.40;55.29;100132.08;125577;1086;104407;-80
2023/04/30 02:55:08;;;;;;;13.70;5.20;;;;;;;6.43;55.14;100135.70;125146;1086;104254;-80
2023/04/30 02:57:39;;;;;;;21.20;5.93;;;;;;;6.43;55.71;100135.70;125452;1086;104358;-79
2023/04/30 03:00:11;;;;;;;16.57;5.77;;;;;;;6.43;55.34;100129.61;125304;1086;104231;-81
2023/04/30 03:02:39;;;;;;;12.20;5.10;;;;;;;6.44;55.31;100132.28;125252;1086;104337;-79
2023/04/30 03:05:09;;;;;;;14.47;5.13;;;;;;;6.42;55.43;100133.94;125198;1086;104241;-79
2023/04/30 03:07:38;;;;;;;17.60;5.57;;;;;;;6.44;55.53;100134.89;125245;1086;104369;-80
2023/04/30 03:10:09;;;;;;;16.35;5.25;;;;;;;6.43;55.33;100130.49;125196;1086;104235;-79
2023/04/30 03:12:38;;;;;;;14.27;5.00;;;;;;;6.43;55.59;100124.40;125242;1086;104308;-79
2023/04/30 03:15:09;;;;;;;12.83;4.90;;;;;;;6.39;55.19;100130.27;125256;1086;104354;-79
2023/04/30 03:17:38;;;;;;;14.83;5.07;;;;;;;6.39;55.19;100136.41;125512;1086;104213;-80
2023/04/30 03:20:09;;;;;;;13.57;5.37;;;;;;;6.39;55.57;100127.67;125273;1086;105610;-80
2023/04/30 03:22:37;;;;;;;11.40;4.50;;;;;;;6.38;55.64;100129.39;125214;1086;104264;-80
2023/04/30 03:25:08;;;;;;;12.17;5.03;;;;;;;6.40;55.85;100132.08;125153;1086;104325;-79
2023/04/30 03:27:36;;;;;;;14.43;4.43;;;;;;;6.41;55.75;100132.14;125273;1086;104360;-79
2023/04/30 03:30:07;;;;;;;11.87;4.77;;;;;;;6.42;55.44;100136.55;125165;1086;104231;-79
2023/04/30 03:32:35;;;;;;;15.43;4.83;;;;;;;6.43;55.64;100135.70;125099;1086;104245;-80
2023/04/30 03:35:05;;;;;;;12.63;4.40;;;;;;;6.45;55.79;100139.30;125143;1086;104372;-80
2023/04/30 03:37:34;;;;;;;11.37;4.17;;;;;;;6.47;55.70;100141.97;125165;1086;104332;-80
2023/04/30 03:40:03;;;;;;;10.50;3.87;;;;;;;6.51;55.56;100141.27;125195;1086;104344;-80
2023/04/30 03:42:32;;;;;;;13.07;4.20;;;;;;;6.53;55.15;100141.34;125424;1086;104222;-80
2023/04/30 03:45:00;;;;;;;9.73;4.20;;;;;;;6.56;55.32;100137.19;125132;1086;104649;-80
2023/04/30 03:47:29;;;;;;;13.00;5.47;;;;;;;6.62;54.64;100136.55;125247;1086;104392;-78
2023/04/30 03:49:57;;;;;;;9.17;4.03;;;;;;;6.66;55.40;100143.70;125342;1086;104354;-80
2023/04/30 03:52:26;;;;;;;10.87;4.47;;;;;;;6.68;55.17;100144.66;125235;1086;104356;-78
2023/04/30 03:54:55;;;;;;;11.60;3.90;;;;;;;6.69;54.94;100142.96;125382;1086;104248;-80
2023/04/30 03:57:23;;;;;;;9.43;3.87;;;;;;;6.69;55.14;100138.63;125165;1086;104220;-78
2023/04/30 03:59:52;;;;;;;11.13;4.23;;;;;;;6.70;54.95;100143.03;125081;1086;104379;-79
2023/04/30 04:02:21;;;;;;;10.57;4.00;;;;;;;6.72;54.75;100137.89;125149;1086;104479;-80
2023/04/30 04:04:50;;;;;;;12.33;4.20;;;;;;;6.74;54.80;100138.84;125223;1086;104350;-79
2023/04/30 04:07:19;;;;;;;8.67;3.80;;;;;;;6.75;54.93;100144.12;125319;1086;104343;-78
2023/04/30 04:09:47;;;;;;;12.73;4.27;;;;;;;6.78;54.54;100140.77;125128;1086;104322;-78
2023/04/30 04:12:16;;;;;;;9.37;3.80;;;;;;;6.79;54.94;100146.06;125279;1086;104270;-80
2023/04/30 04:14:45;;;;;;;10.80;3.80;;;;;;;6.80;55.08;100149.55;125066;1086;104299;-79
2023/04/30 04:17:13;;;;;;;10.60;3.70;;;;;;;6.82;54.80;100140.98;125089;1086;104360;-79
2023/04/30 04:19:42;;;;;;;7.07;3.47;;;;;;;6.82;54.75;100146.20;125190;1086;104316;-78
2023/04/30 04:22:10;;;;;;;12.37;3.83;;;;;;;6.84;54.93;100147.15;125108;1086;104321;-78
2023/04/30 04:24:39;;;;;;;8.20;3.87;;;;;;;6.87;54.56;100142.88;125273;1086;104235;-79
2023/04/30 04:27:08;;;;;;;12.47;3.83;;;;;;;6.90;54.50;100138.69;125161;1086;104356;-78
2023/04/30 04:29:37;;;;;;;8.20;3.47;;;;;;;6.92;54.46;100143.97;125119;1086;104519;-78
2023/04/30 04:32:05;;;;;;;12.13;4.10;;;;;;;6.94;54.33;100142.34;125151;1086;104398;-79
2023/04/30 04:34:34;;;;;;;10.20;3.70;;;;;;;6.95;54.38;100147.62;125322;1086;104215;-79
2023/04/30 04:37:03;;;;;;;14.23;4.30;;;;;;;6.99;54.72;100146.04;125382;1086;104231;-79
2023/04/30 04:39:31;;;;;;;10.70;3.70;;;;;;;7.01;54.34;100144.38;125204;1086;104397;-80
2023/04/30 04:42:01;;;;;;;11.17;3.63;;;;;;;7.06;54.61;100141.97;125460;1086;104309;-78
2023/04/30 04:44:30;;;;;;;9.50;3.47;;;;;;;7.10;54.08;100139.56;125464;1086;104298;-79
2023/04/30 04:46:58;;;;;;;10.20;3.87;;;;;;;7.17;53.98;100146.85;126339;1086;104225;-79
2023/04/30 04:49:27;;;;;;;8.93;3.80;;;;;;;7.23;54.23;100137.50;125872;1086;104316;-79
2023/04/30 04:51:55;;;;;;;10.27;3.87;;;;;;;7.28;54.28;100131.66;125904;1086;104235;-79
2023/04/30 04:54:24;;;;;;;11.47;4.13;;;;;;;7.34;54.56;100136.27;125991;1086;104327;-79
2023/04/30 04:56:52;;;;;;;10.07;4.00;;;;;;;7.41;54.33;100133.06;126184;1086;104280;-78
2023/04/30 04:59:21;;;;;;;12.30;4.00;;;;;;;7.47;54.47;100135.94;125626;1086;104363;-78
2023/04/30 05:01:50;;;;;;;13.77;4.10;;;;;;;7.51;54.29;100132.64;126136;1086;104232;-78
2023/04/30 05:04:18;;;;;;;10.43;3.90;;;;;;;7.60;54.60;100141.68;126413;1086;104187;-79
2023/04/30 05:06:47;;;;;;;13.37;4.40;;;;;;;7.64;54.26;100131.42;126479;1086;104315;-78
2023/04/30 05:09:16;;;;;;;11.80;3.77;;;;;;;7.73;54.24;100137.03;126278;1086;104232;-78
2023/04/30 05:11:47;;;;;;;9.93;4.00;;;;;;;7.82;54.02;100131.30;126066;1086;104267;-78
2023/04/30 05:14:16;;;;;;;9.20;3.93;;;;;;;7.90;54.59;100131.62;126415;1086;104339;-79
2023/04/30 05:16:45;;;;;;;14.00;4.50;;;;;;;7.98;54.21;100129.28;126258;1086;104161;-78
2023/04/30 05:19:13;;;;;;;13.00;4.60;;;;;;;8.07;54.33;100129.65;126405;1086;104210;-78
2023/04/30 05:21:42;;;;;;;12.93;4.23;;;;;;;8.15;54.32;100125.64;126606;1086;104369;-79
2023/04/30 05:24:10;;;;;;;10.60;4.05;;;;;;;8.23;54.38;100128.56;125962;1086;104257;-77
2023/04/30 05:26:39;;;;;;;9.83;3.87;;;;;;;8.32;54.62;100122.78;125491;1086;104306;-77
2023/04/30 05:29:09;;;;;;;11.53;4.10;;;;;;;8.41;54.32;100128.36;125490;1086;104155;-77
2023/04/30 05:31:38;;;;;;;9.57;3.87;;;;;;;8.49;54.39;100136.53;125155;1086;104299;-77
2023/04/30 05:34:06;;;;;;;11.77;3.90;;;;;;;8.57;54.33;100132.48;125268;1086;104273;-77
2023/04/30 05:36:35;;;;;;;12.33;4.03;;;;;;;8.68;53.82;100131.18;125011;1086;104273;-78
2023/04/30 05:39:04;;;;;;;9.57;3.90;;;;;;;8.79;54.23;100126.34;125263;1086;104297;-77
2023/04/30 05:41:32;;;;;;;14.43;4.00;;;;;;;8.87;54.44;100126.62;125766;1086;104345;-78
2023/04/30 05:44:03;;;;;;;11.73;4.23;;;;;;;8.97;54.13;100129.61;125723;1086;104382;-78
2023/04/30 05:46:32;;;;;;;12.70;4.13;;;;;;;9.12;53.99;100128.40;125543;1086;104162;-78
2023/04/30 05:49:00;;;;;;;7.63;3.87;;;;;;;9.24;54.07;100123.59;125320;1086;104379;-78
2023/04/30 05:51:29;;;;;;;10.10;4.00;;;;;;;9.37;53.93;100116.17;125239;1086;104375;-77
2023/04/30 05:53:59;;;;;;;10.17;3.87;;;;;;;9.54;54.31;100128.10;125077;1086;104327;-77
2023/04/30 05:56:27;;;;;;;10.97;4.10;;;;;;;9.69;53.47;100123.38;125098;1086;104715;-78
2023/04/30 05:58:56;;;;;;;9.93;3.90;;;;;;;9.82;53.94;100115.92;125361;1086;104622;-77
2023/04/30 06:01:27;;;;;;;13.20;4.23;;;;;;;9.94;53.70;100123.27;125147;1086;104369;-77
2023/04/30 06:03:57;;;;;;;12.37;3.90;;;;;;;10.08;53.44;100120.27;125258;1086;104599;-77
2023/04/30 06:06:25;;;;;;;11.13;3.90;;;;;;;10.22;52.85;100122.41;125209;1086;104341;-77
2023/04/30 06:08:54;;;;;;;10.37;3.73;;;;;;;10.35;53.26;100116.74;125248;1086;104318;-78
2023/04/30 06:11:24;;;;;;;9.67;4.10;;;;;;;10.52;52.09;100113.75;125396;1086;104266;-78
2023/04/30 06:13:53;;;;;;;11.33;3.60;;;;;;;10.66;50.42;100117.66;125397;1086;104225;-77
2023/04/30 06:16:21;;;;;;;8.77;3.10;;;;;;;10.83;51.65;100117.23;125185;1086;104293;-76
2023/04/30 06:18:50;;;;;;;7.03;3.47;;;;;;;10.92;51.40;100115.78;125098;1086;104292;-78
2023/04/30 06:21:19;;;;;;;8.50;3.47;;;;;;;11.04;51.13;100112.59;125104;1086;104289;-77
2023/04/30 06:23:48;;;;;;;9.10;3.57;;;;;;;11.18;50.19;100119.97;125189;1086;104264;-76
2023/04/30 06:26:16;;;;;;;8.97;3.50;;;;;;;11.28;51.13;100120.27;125214;1086;104433;-77
2023/04/30 06:28:45;;;;;;;11.13;3.90;;;;;;;11.36;50.46;100119.55;125154;1086;104369;-77
2023/04/30 06:31:14;;;;;;;5.83;3.23;;;;;;;11.45;50.87;100125.97;125322;1086;104334;-78
2023/04/30 06:33:42;;;;;;;9.05;3.30;;;;;;;11.59;50.73;100125.41;125526;1086;104318;-78
2023/04/30 06:36:11;;;;;;;6.40;3.03;;;;;;;11.65;50.60;100113.30;125263;1086;104270;-77
2023/04/30 06:38:41;;;;;;;8.20;3.17;;;;;;;11.73;50.29;100121.39;125465;1086;104257;-78
2023/04/30 06:41:10;;;;;;;6.77;2.80;;;;;;;11.78;49.56;100114.52;125450;1086;104229;-79
2023/04/30 06:43:38;;;;;;;5.67;3.23;;;;;;;11.88;50.19;100111.25;125280;1086;104257;-78
2023/04/30 06:46:07;;;;;;;6.37;3.00;;;;;;;12.00;48.86;100110.70;125253;1085;104673;-78
2023/04/30 06:48:35;;;;;;;10.10;3.30;;;;;;;12.09;49.39;100119.65;125301;1086;104328;-78
2023/04/30 06:51:04;;;;;;;6.90;3.40;;;;;;;12.14;49.55;100111.02;125306;1086;104228;-78
2023/04/30 06:53:32;;;;;;;6.23;3.17;;;;;;;12.19;49.62;100109.38;125179;1086;104244;-77
2023/04/30 06:56:03;;;;;;;11.50;3.63;;;;;;;12.23;49.31;100107.70;125377;1086;104158;-79
2023/04/30 06:58:31;;;;;;;8.07;3.30;;;;;;;12.26;49.31;100104.25;125593;1086;104294;-77
2023/04/30 07:01:00;;;;;;;10.40;3.30;;;;;;;12.27;49.08;100103.41;125539;1085;104228;-78
2023/04/30 07:03:28;;;;;;;6.17;3.10;;;;;;;12.29;48.28;100101.70;125273;1086;104210;-78
2023/04/30 07:05:57;;;;;;;6.40;3.20;;;;;;;12.27;47.35;100109.55;125181;1086;104238;-76
2023/04/30 07:08:26;;;;;;;7.87;3.10;;;;;;;12.25;48.13;100098.12;125120;1086;104238;-77
2023/04/30 07:10:54;;;;;;;9.60;3.30;;;;;;;12.23;48.13;100108.61;125248;1086;104299;-78
2023/04/30 07:13:23;;;;;;;6.40;3.30;;;;;;;12.23;47.74;100099.80;125172;1086;104238;-77
2023/04/30 07:15:52;;;;;;;5.77;3.00;;;;;;;12.25;48.05;100091.95;125283;1086;104261;-78
2023/04/30 07:18:20;;;;;;;7.43;3.13;;;;;;;12.29;47.75;100104.33;125410;1086;104205;-78
2023/04/30 07:20:49;;;;;;;9.97;3.07;;;;;;;12.36;47.39;100098.36;125419;1086;104257;-77
2023/04/30 07:23:17;;;;;;;4.77;2.73;;;;;;;12.47;47.44;100090.70;125262;1086;104424;-77
2023/04/30 07:25:46;;;;;;;6.97;2.93;;;;;;;12.57;47.47;100088.30;125304;1085;104238;-77
2023/04/30 07:28:14;;;;;;;6.20;2.50;;;;;;;12.67;46.70;100092.00;125067;1086;104350;-78
2023/04/30 07:30:43;;;;;;;8.43;3.03;;;;;;;12.72;46.70;100098.23;125126;1086;104300;-77
2023/04/30 07:33:12;;;;;;;4.97;2.70;;;;;;;12.88;45.23;100094.16;125196;1086;104447;-77
2023/04/30 07:35:41;;;;;;;5.63;2.40;;;;;;;13.17;45.62;100087.70;125270;1086;105649;-79
2023/04/30 07:38:09;;;;;;;5.00;2.40;;;;;;;13.41;44.54;100101.33;125326;1086;104217;-78
2023/04/30 07:40:38;;;;;;;7.77;2.60;;;;;;;13.50;44.65;100090.06;125369;1086;104299;-77
2023/04/30 07:43:07;;;;;;;6.67;2.90;;;;;;;13.63;45.10;100076.25;125346;1086;104344;-77
2023/04/30 07:45:36;;;;;;;6.17;2.27;;;;;;;13.80;44.24;100084.40;125088;1086;104339;-76
2023/04/30 07:48:05;;;;;;;6.40;2.37;;;;;;;13.94;42.17;100074.06;125137;1086;104407;-77
2023/04/30 07:50:33;;;;;;;8.03;2.20;;;;;;;14.21;42.51;100088.55;125164;1086;104184;-78
2023/04/30 07:53:02;;;;;;;4.27;2.40;;;;;;;14.45;41.48;100084.47;125209;1086;104283;-78
2023/04/30 07:55:30;;;;;;;3.67;2.13;;;;;;;14.60;41.53;100086.41;125242;1086;104244;-77
2023/04/30 07:58:01;;;;;;;3.43;1.90;;;;;;;14.63;39.01;100079.47;125391;1086;104292;-77
2023/04/30 08:00:30;;;;;;;2.87;1.83;;;;;;;14.52;38.92;100086.30;125257;1086;104277;-77
2023/04/30 08:02:59;;;;;;;5.43;2.13;;;;;;;14.54;39.55;100085.47;125395;1086;104370;-78
2023/04/30 08:05:28;;;;;;;4.83;2.20;;;;;;;14.60;40.04;100092.63;125109;1085;104299;-77
2023/04/30 08:07:56;;;;;;;5.90;2.00;;;;;;;14.56;38.32;100098.69;125152;1086;104295;-77
2023/04/30 08:10:25;;;;;;;2.90;2.17;;;;;;;14.44;39.13;100098.53;125234;1086;104277;-78
2023/04/30 08:12:54;;;;;;;4.57;2.23;;;;;;;14.51;40.86;100090.71;125165;1086;104344;-78
2023/04/30 08:15:22;;;;;;;3.03;2.00;;;;;;;14.45;40.25;100100.31;125291;1086;104242;-78
2023/04/30 08:17:51;;;;;;;4.43;2.17;;;;;;;14.39;39.54;100088.78;125204;1086;104258;-77
2023/04/30 08:20:22;;;;;;;5.47;2.00;;;;;;;14.41;40.05;100104.64;125312;1086;104297;-76
2023/04/30 08:22:50;;;;;;;7.87;1.83;;;;;;;14.34;38.87;100108.08;125177;1086;104289;-76
2023/04/30 08:25:19;;;;;;;4.97;2.20;;;;;;;14.26;37.48;100081.58;125061;1086;104813;-78
2023/04/30 08:27:47;;;;;;;3.13;2.00;;;;;;;14.23;38.75;100086.81;125342;1086;104248;-78
2023/04/30 08:30:16;;;;;;;5.80;2.40;;;;;;;14.30;39.05;100087.78;125315;1086;104340;-76
2023/04/30 08:32:45;;;;;;;3.70;2.20;;;;;;;14.36;38.88;100095.78;125016;1086;104229;-76
2023/04/30 08:35:13;;;;;;;5.73;2.23;;;;;;;14.58;37.39;100080.23;125088;1086;104191;-77
2023/04/30 08:37:42;;;;;;;6.10;2.20;;;;;;;14.77;38.50;100081.37;125011;1086;104341;-77
2023/04/30 08:40:12;;;;;;;5.53;2.00;;;;;;;14.93;35.80;100078.05;125115;1086;104229;-77
2023/04/30 08:42:46;;;;;;;8.63;2.17;;;;;;;15.21;36.53;100083.63;125159;1086;104346;-78
2023/04/30 08:45:15;;;;;;;3.05;2.30;;;;;;;15.47;34.28;100091.78;125384;1086;104231;-78
2023/04/30 08:47:44;;;;;;;7.10;2.40;;;;;;;15.57;35.20;100083.08;125255;1086;117863;-78
2023/04/30 08:50:13;;;;;;;4.75;1.95;;;;;;;15.64;33.85;100076.98;125292;1086;104398;-78
2023/04/30 08:52:43;;;;;;;9.27;2.60;;;;;;;15.72;35.31;100077.05;125374;1086;104295;-78
2023/04/30 08:55:11;;;;;;;7.60;2.23;;;;;;;15.73;32.92;100084.08;125482;1086;104343;-78
2023/04/30 08:57:40;;;;;;;9.43;2.40;;;;;;;15.83;35.74;100078.90;125307;1086;104228;-78
2023/04/30 09:00:11;;;;;;;9.90;2.50;;;;;;;15.74;34.06;100074.41;125352;1085;104724;-79
2023/04/30 09:02:42;;;;;;;4.60;1.70;;;;;;;15.56;33.28;100080.42;125263;1086;104501;-78
2023/04/30 09:05:12;;;;;;;4.80;2.30;;;;;;;15.43;34.30;100085.59;125478;1084;104229;-80
2023/04/30 09:07:43;;;;;;;4.47;2.00;;;;;;;15.30;35.58;100082.82;125580;1086;104242;-77
2023/04/30 09:10:18;;;;;;;5.60;1.93;;;;;;;15.34;35.10;100081.98;125322;1086;104382;-78
2023/04/30 09:12:59;;;;;;;5.53;2.00;;;;;;;15.40;33.95;100072.34;125382;1085;104225;-78
2023/04/30 09:15:28;;;;;;;4.33;2.00;;;;;;;15.55;33.81;100066.32;125198;1086;104401;-76
2023/04/30 09:18:08;;;;;;;5.20;2.33;;;;;;;15.68;34.40;100059.37;125034;1086;104258;-78
2023/04/30 09:20:37;;;;;;;7.20;2.63;;;;;;;15.77;34.11;100066.53;125346;1086;104229;-78
2023/04/30 09:23:08;;;;;;;4.20;2.20;;;;;;;15.78;33.45;100065.64;125212;1086;104231;-78
2023/04/30 09:25:40;;;;;;;5.63;2.00;;;;;;;15.80;34.20;100085.08;125423;1086;104333;-79
2023/04/30 09:28:11;;;;;;;5.73;1.83;;;;;;;15.73;34.76;100073.50;125182;1086;104338;-78
2023/04/30 09:30:40;;;;;;;5.97;2.27;;;;;;;15.56;34.77;100056.63;125247;1085;104229;-76
2023/04/30 09:33:09;;;;;;;5.50;2.00;;;;;;;15.58;34.75;100060.16;125147;1085;104229;-78
2023/04/30 09:35:40;;;;;;;4.50;2.63;;;;;;;15.69;34.63;100058.50;125322;1086;104337;-77
2023/04/30 09:38:26;;;;;;;4.10;2.57;;;;;;;15.81;34.05;100069.18;125219;1086;104274;-77
2023/04/30 09:40:55;;;;;;;5.77;2.17;;;;;;;15.93;33.33;100056.94;125216;1085;104226;-77
2023/04/30 09:43:23;;;;;;;4.60;1.90;;;;;;;16.04;32.96;100059.66;125230;1086;104350;-77
2023/04/30 09:45:52;;;;;;;4.43;2.00;;;;;;;16.16;33.47;100057.96;125219;1086;104232;-77
2023/04/30 09:48:23;;;;;;;6.50;2.30;;;;;;;16.22;33.32;100041.23;125525;1086;104296;-76
2023/04/30 09:50:52;;;;;;;5.33;2.10;;;;;;;16.32;33.48;100042.16;125251;1086;104241;-78
2023/04/30 09:53:22;;;;;;;4.87;2.03;;;;;;;16.42;33.42;100043.95;125204;1086;104466;-77
2023/04/30 09:55:51;;;;;;;5.40;1.63;;;;;;;16.48;32.22;100038.69;125116;1086;104260;-77
2023/04/30 09:58:21;;;;;;;2.73;1.70;;;;;;;16.45;30.85;100061.63;125154;1086;105587;-78
2023/04/30 10:00:52;;;;;;;3.17;2.20;;;;;;;16.45;31.81;100049.27;125183;1086;104383;-76
2023/04/30 10:03:22;;;;;;;3.90;1.70;;;;;;;16.42;32.41;100032.48;125423;1086;104331;-75
2023/04/30 10:05:51;;;;;;;5.40;2.10;;;;;;;16.37;32.21;100039.53;125237;1086;104258;-77
2023/04/30 10:08:26;;;;;;;3.65;1.90;;;;;;;16.24;32.90;100046.55;125053;1086;104279;-77
2023/04/30 10:10:59;;;;;;;4.20;2.13;;;;;;;16.20;32.92;100052.69;125193;1085;104235;-79
2023/04/30 10:13:30;;;;;;;;;;;;;;;16.14;32.00;100040.29;125201;1086;104244;-78
2023/04/30 10:16:06;;;;;;;3.20;2.20;;;;;;;16.33;33.21;100041.27;125124;1086;104280;-76
2023/04/30 10:18:39;;;;;;;2.30;1.73;;;;;;;16.58;33.08;100050.23;125088;1086;104348;-77
2023/04/30 10:21:13;;;;;;;3.83;2.03;;;;;;;16.77;32.36;100037.05;125204;1086;104238;-76
2023/04/30 10:23:42;;;;;;;;;;;;;;;16.94;30.08;100039.75;125185;1085;104372;-76
2023/04/30 10:26:11;;;;;;;6.80;1.93;;;;;;;17.00;30.39;100038.02;125077;1086;104248;-76
2023/04/30 10:28:40;;;;;;;4.50;1.90;;;;;;;17.11;30.78;100039.78;125001;1086;104702;-76
2023/04/30 10:31:10;;;;;;;5.03;1.70;;;;;;;17.23;30.45;100038.06;124968;1086;104309;-76
2023/04/30 10:33:48;;;;;;;4.40;1.90;;;;;;;17.29;29.77;100038.94;125114;1086;104234;-76
2023/04/30 10:36:26;;;;;;;7.53;2.40;;;;;;;17.28;30.69;100037.16;125307;1085;104346;-77
2023/04/30 10:38:56;;;;;;;5.10;2.03;;;;;;;17.35;29.45;100046.90;124945;1086;104238;-76
2023/04/30 10:41:28;;;;;;;3.63;2.03;;;;;;;17.31;29.91;100046.02;125052;1086;104321;-77
2023/04/30 10:44:00;;;;;;;3.43;1.87;;;;;;;17.35;29.53;100046.90;124977;1086;104376;-77
2023/04/30 10:46:29;;;;;;;5.77;2.13;;;;;;;17.15;29.61;100057.48;125111;1086;104290;-78
2023/04/30 10:48:59;;;;;;;3.67;1.70;;;;;;;17.10;30.07;100061.89;125021;1086;104229;-76
2023/04/30 10:51:45;;;;;;;6.13;2.10;;;;;;;17.16;30.85;100062.78;125006;1086;104366;-75
2023/04/30 10:54:16;;;;;;;5.40;1.90;;;;;;;17.30;31.13;100051.33;125023;1085;104268;-76
2023/04/30 10:56:46;;;;;;;2.57;1.87;;;;;;;17.25;30.01;100049.54;125228;1086;104360;-76
2023/04/30 10:59:15;;;;;;;2.70;1.67;;;;;;;17.31;30.97;100047.77;125434;1086;104378;-76
2023/04/30 11:01:58;;;;;;;5.30;1.90;;;;;;;17.32;30.87;100046.90;125144;1086;104369;-77
2023/04/30 11:04:27;;;;;;;3.93;2.00;;;;;;;17.20;30.11;100051.31;125030;1086;104333;-77
2023/04/30 11:07:07;;;;;;;2.77;1.97;;;;;;;17.17;30.68;100038.05;125028;1086;104389;-76
2023/04/30 11:09:38;;;;;;;5.97;2.00;;;;;;;17.07;30.18;100060.98;125082;1086;104328;-76
2023/04/30 11:12:12;;;;;;;5.43;2.33;;;;;;;17.11;30.39;100060.99;125187;1086;104225;-76
2023/04/30 11:14:43;;;;;;;2.73;1.77;;;;;;;17.10;30.60;100053.94;125240;1086;104363;-76
2023/04/30 11:17:21;;;;;;;7.53;2.17;;;;;;;17.11;31.07;100056.59;125151;1086;104232;-76
2023/04/30 11:19:52;;;;;;;4.00;1.80;;;;;;;17.10;30.49;100062.77;125105;1086;104296;-76
2023/04/30 11:22:23;;;;;;;2.43;2.07;;;;;;;16.97;30.08;100079.51;125441;1086;104638;-76